Time;durP1;ratioP1;P1;durP2;ratioP2;P2;SDS_P1;SDS_P2;PMS_P1;PMS_P2;Temp;Humidity;BMP_temperature;BMP_pressure;BME280_temperature;BME280_humidity;BME280_pressure;Samples;Min_cycle;Max_cycle;Signal;HPM_P1;HPM_P2
2023/03/28 00:00:29;;;;;;;8.00;2.72;;;;;;;0.21;97.97;102372.41;5010525;28;20480;-72
2023/03/28 00:02:55;;;;;;;19.58;3.40;;;;;;;0.18;98.41;102367.41;5017841;28;20105;-71
2023/03/28 00:05:20;;;;;;;6.38;2.65;;;;;;;0.22;98.55;102375.78;5029492;28;20133;-72
2023/03/28 00:07:46;;;;;;;12.13;2.63;;;;;;;0.20;98.52;102375.84;5035138;28;20041;-72
2023/03/28 00:10:12;;;;;;;9.60;2.65;;;;;;;0.18;98.56;102378.44;5010041;28;20250;-72
2023/03/28 00:12:37;;;;;;;11.30;2.60;;;;;;;0.15;99.11;102381.09;5011166;28;20045;-72
2023/03/28 00:15:03;;;;;;;15.68;3.72;;;;;;;0.15;98.67;102378.56;5017137;28;20050;-72
2023/03/28 00:17:29;;;;;;;13.68;2.45;;;;;;;0.10;99.16;102380.41;5003212;28;20025;-72
2023/03/28 00:19:55;;;;;;;15.60;2.70;;;;;;;0.13;99.07;102377.78;5031563;28;20048;-72
2023/03/28 00:22:21;;;;;;;20.75;3.78;;;;;;;0.12;98.61;102377.81;5019106;28;20075;-72
2023/03/28 00:24:50;;;;;;;13.35;2.95;;;;;;;0.15;98.84;102385.34;5014899;28;20042;-72
2023/03/28 00:27:16;;;;;;;11.52;2.38;;;;;;;0.09;98.79;102383.84;5021726;28;20037;-72
2023/03/28 00:29:43;;;;;;;12.70;2.50;;;;;;;0.03;98.65;102390.88;5012849;28;20127;-72
2023/03/28 00:32:08;;;;;;;12.45;3.03;;;;;;;0.04;99.36;102392.50;5030242;28;20036;-72
2023/03/28 00:34:34;;;;;;;14.65;2.42;;;;;;;-0.01;99.13;102385.03;5019410;28;20037;-72
2023/03/28 00:37:01;;;;;;;9.95;2.40;;;;;;;-0.04;99.65;102393.63;5019912;28;20046;-71
2023/03/28 00:39:28;;;;;;;11.70;2.33;;;;;;;-0.03;100.00;102381.69;5014795;28;20028;-72
2023/03/28 00:41:55;;;;;;;11.32;3.40;;;;;;;-0.04;99.91;102391.06;5021684;28;20044;-72
2023/03/28 00:44:56;;;;;;;14.68;5.30;;;;;;;-0.02;99.86;102383.34;5019332;28;20053;-71
2023/03/28 00:47:39;;;;;;;9.53;2.33;;;;;;;-0.02;99.72;102384.19;4987410;28;20050;-71
2023/03/28 00:50:29;;;;;;;12.93;2.42;;;;;;;-0.08;99.86;102386.91;5001470;28;20037;-72
2023/03/28 00:53:03;;;;;;;11.50;2.22;;;;;;;-0.10;100.00;102385.31;5032275;28;20033;-72
2023/03/28 00:55:34;;;;;;;10.85;2.10;;;;;;;-0.12;100.00;102387.06;5015103;28;20164;-72
2023/03/28 00:58:05;;;;;;;14.30;2.78;;;;;;;-0.10;100.00;102385.31;5014242;28;20029;-72
2023/03/28 01:00:33;;;;;;;17.65;3.35;;;;;;;-0.15;100.00;102392.25;5019800;28;20315;-72
2023/03/28 01:03:01;;;;;;;11.48;2.47;;;;;;;-0.15;100.00;102393.13;5017792;28;20033;-72
2023/03/28 01:05:31;;;;;;;7.75;1.80;;;;;;;-0.18;100.00;102395.75;5029217;28;20029;-72
2023/03/28 01:08:11;;;;;;;11.48;2.42;;;;;;;-0.21;100.00;102383.94;5010329;28;20562;-72
2023/03/28 01:10:37;;;;;;;10.00;2.13;;;;;;;-0.24;100.00;102381.47;5032051;28;20069;-72
2023/03/28 01:13:05;;;;;;;11.00;2.20;;;;;;;-0.26;100.00;102377.31;5031196;28;20030;-71
2023/03/28 01:15:30;;;;;;;8.77;1.90;;;;;;;-0.28;100.00;102381.63;5020988;28;20092;-72
2023/03/28 01:18:01;;;;;;;23.85;4.22;;;;;;;-0.32;100.00;102382.59;5007252;28;20064;-71
2023/03/28 01:21:00;;;;;;;16.85;2.88;;;;;;;-0.35;100.00;102380.16;4999223;28;20059;-72
2023/03/28 01:23:41;;;;;;;12.48;2.10;;;;;;;-0.37;100.00;102382.72;5011951;28;20602;-72
2023/03/28 01:26:09;;;;;;;8.13;2.55;;;;;;;-0.43;100.00;102383.75;5013745;28;20068;-72
2023/03/28 01:29:12;;;;;;;14.07;2.35;;;;;;;-0.46;100.00;102380.47;5012774;28;20030;-72
2023/03/28 01:32:02;;;;;;;8.38;2.15;;;;;;;-0.52;100.00;102376.38;5021295;28;20049;-72
2023/03/28 01:35:14;;;;;;;7.82;2.30;;;;;;;-0.56;100.00;102373.97;5021711;28;20503;-72
2023/03/28 01:37:58;;;;;;;8.63;2.10;;;;;;;-0.64;100.00;102369.94;5009688;28;20450;-71
2023/03/28 01:40:27;;;;;;;9.30;2.17;;;;;;;-0.68;100.00;102372.59;5019225;28;20037;-72
2023/03/28 01:43:29;;;;;;;13.43;2.70;;;;;;;-0.73;100.00;102370.19;5009848;28;20047;-71
2023/03/28 01:46:30;;;;;;;9.50;2.40;;;;;;;-0.78;100.00;102369.50;5024961;28;20029;-72
2023/03/28 01:49:19;;;;;;;13.02;3.40;;;;;;;-0.81;100.00;102367.88;5013384;28;20048;-72
2023/03/28 01:51:51;;;;;;;13.98;2.47;;;;;;;-0.83;100.00;102367.09;5025679;28;20041;-72
2023/03/28 01:54:52;;;;;;;8.27;2.30;;;;;;;-0.86;100.00;102366.34;5019151;28;20038;-71
2023/03/28 01:57:32;;;;;;;9.52;2.30;;;;;;;-0.89;100.00;102368.97;4948789;28;20042;-72
2023/03/28 02:00:22;;;;;;;10.33;3.40;;;;;;;-0.88;100.00;102365.56;5027235;28;20048;-72
2023/03/28 02:03:13;;;;;;;6.05;2.45;;;;;;;-0.92;100.00;102375.00;5026034;28;20043;-71
2023/03/28 02:05:49;;;;;;;;;;;;;;;-0.93;100.00;102369.94;5019547;28;20104;-72
2023/03/28 02:08:17;;;;;;;20.23;2.45;;;;;;;-0.96;100.00;102364.91;5024076;28;19921;-72
2023/03/28 02:10:51;;;;;;;11.68;2.03;;;;;;;-0.97;100.00;102364.09;5006648;28;20033;-71
2023/03/28 02:13:47;;;;;;;12.05;2.45;;;;;;;-0.96;100.00;102367.47;5021082;28;20511;-71
2023/03/28 02:16:35;;;;;;;11.63;2.08;;;;;;;-0.97;100.00;102356.44;5019613;28;20550;-71
2023/03/28 02:19:25;;;;;;;10.20;2.40;;;;;;;-0.98;100.00;102364.94;5005651;28;20038;-71
2023/03/28 02:22:06;;;;;;;14.77;2.97;;;;;;;-0.96;100.00;102357.28;5016369;28;20041;-71
2023/03/28 02:24:32;;;;;;;11.70;2.25;;;;;;;-0.93;100.00;102364.84;5019433;28;20045;-72
2023/03/28 02:27:10;;;;;;;11.10;2.65;;;;;;;-0.94;100.00;102363.16;5036482;28;20041;-71
2023/03/28 02:29:46;;;;;;;11.23;2.42;;;;;;;-0.99;100.00;102360.75;5020430;28;20041;-72
2023/03/28 02:32:20;;;;;;;10.20;2.70;;;;;;;-0.97;100.00;102356.44;5023990;23;20213;-76
2023/03/28 02:34:48;;;;;;;10.15;2.40;;;;;;;-0.96;100.00;102347.94;4997178;28;20029;-75
2023/03/28 02:38:02;;;;;;;22.27;2.72;;;;;;;-0.90;100.00;102349.47;5021056;28;20129;-75
2023/03/28 02:40:51;;;;;;;11.85;2.80;;;;;;;-0.84;100.00;102349.31;4982853;28;20125;-75
2023/03/28 02:43:43;;;;;;;27.92;3.05;;;;;;;-0.90;100.00;102345.22;5002662;28;20046;-75
2023/03/28 02:46:16;;;;;;;15.18;3.00;;;;;;;-0.95;100.00;102353.88;4993618;28;20046;-75
2023/03/28 02:49:00;;;;;;;13.05;3.00;;;;;;;-1.00;100.00;102348.88;4971691;28;20058;-75
2023/03/28 02:51:33;;;;;;;14.93;2.70;;;;;;;-1.04;100.00;102347.31;5002283;28;20073;-75
2023/03/28 02:54:08;;;;;;;14.05;3.35;;;;;;;-1.06;100.00;102354.16;4986190;28;20503;-76
2023/03/28 02:56:35;;;;;;;8.80;3.00;;;;;;;-1.10;100.00;102358.50;4987113;28;20041;-75
2023/03/28 02:59:15;;;;;;;17.13;3.22;;;;;;;-1.05;100.00;102350.75;4984588;28;20037;-75
2023/03/28 03:01:42;;;;;;;16.05;4.68;;;;;;;-1.09;100.00;102354.22;4986960;28;20038;-75
2023/03/28 03:04:08;;;;;;;15.50;2.95;;;;;;;-1.05;100.00;102355.84;4985826;28;20037;-75
2023/03/28 03:06:35;;;;;;;13.88;3.17;;;;;;;-0.90;100.00;102357.13;4981966;28;20030;-75
2023/03/28 03:09:03;;;;;;;18.17;3.50;;;;;;;-0.91;100.00;102358.00;5001820;28;20045;-74
2023/03/28 03:11:29;;;;;;;21.95;4.20;;;;;;;-0.96;100.00;102350.50;4999343;28;20034;-75
2023/03/28 03:13:59;;;;;;;17.83;4.63;;;;;;;-0.93;100.00;102352.94;4998551;28;20073;-74
2023/03/28 03:16:24;;;;;;;14.85;4.15;;;;;;;-0.97;100.00;102359.00;4986966;28;20496;-74
2023/03/28 03:18:51;;;;;;;20.88;4.70;;;;;;;-0.99;100.00;102360.75;5008194;28;20022;-74
2023/03/28 03:21:16;;;;;;;14.80;3.53;;;;;;;-1.00;100.00;102362.47;4983380;28;20069;-75
2023/03/28 03:23:42;;;;;;;14.30;4.05;;;;;;;-1.03;100.00;102365.09;4984590;28;20030;-74
2023/03/28 03:26:07;;;;;;;13.80;4.20;;;;;;;-1.05;100.00;102358.38;4998273;28;20027;-74
2023/03/28 03:28:51;;;;;;;11.15;4.20;;;;;;;-1.12;100.00;102357.72;4991407;28;20045;-74
2023/03/28 03:31:18;;;;;;;10.10;3.90;;;;;;;-1.16;100.00;102361.22;4997105;28;20031;-74
2023/03/28 03:33:46;;;;;;;21.17;5.25;;;;;;;-1.15;100.00;102369.69;5000348;28;20035;-75
2023/03/28 03:36:16;;;;;;;18.30;4.88;;;;;;;-1.12;100.00;102372.16;4980918;28;20041;-74
2023/03/28 03:38:41;;;;;;;12.13;4.57;;;;;;;-1.13;100.00;102371.34;4987702;28;20113;-74
2023/03/28 03:41:11;;;;;;;19.60;4.15;;;;;;;-1.13;100.00;102371.34;5002061;28;21382;-75
2023/03/28 03:43:37;;;;;;;16.08;4.45;;;;;;;-1.09;100.00;102367.81;4999211;28;20201;-75
2023/03/28 03:46:02;;;;;;;16.92;4.97;;;;;;;-1.07;100.00;102368.63;5002108;28;20053;-75
2023/03/28 03:48:28;;;;;;;9.88;3.97;;;;;;;-1.09;100.00;102360.19;4979707;28;20034;-74
2023/03/28 03:50:56;;;;;;;17.13;5.20;;;;;;;-1.10;100.00;102361.03;5004524;28;20770;-74
2023/03/28 03:53:22;;;;;;;14.52;4.82;;;;;;;-1.10;100.00;102367.84;5003776;28;20034;-75
2023/03/28 03:56:05;;;;;;;15.73;4.15;;;;;;;-1.14;100.00;102373.91;4986472;28;20042;-74
2023/03/28 03:58:50;;;;;;;14.32;4.22;;;;;;;-1.06;100.00;102366.88;4999758;28;20035;-74
2023/03/28 04:01:16;;;;;;;14.00;4.03;;;;;;;-1.12;100.00;102377.25;4997052;28;20085;-74
2023/03/28 04:03:42;;;;;;;9.02;4.07;;;;;;;-1.16;100.00;102368.88;4986625;28;20022;-74
2023/03/28 04:06:10;;;;;;;18.23;4.25;;;;;;;-1.22;100.00;102366.50;4988359;28;20065;-75
2023/03/28 04:08:36;;;;;;;17.50;4.53;;;;;;;-1.26;100.00;102370.81;4974901;28;20177;-74
2023/03/28 04:11:03;;;;;;;16.55;4.38;;;;;;;-1.30;100.00;102374.34;4996577;28;20034;-75
2023/03/28 04:13:35;;;;;;;16.77;5.05;;;;;;;-1.32;100.00;102376.06;4996054;28;20479;-74
2023/03/28 04:16:02;;;;;;;16.83;4.47;;;;;;;-1.34;100.00;102367.63;5000766;28;20038;-74
2023/03/28 04:18:39;;;;;;;10.68;4.78;;;;;;;-1.36;100.00;102371.94;5000082;28;20485;-73
2023/03/28 04:21:08;;;;;;;11.70;4.63;;;;;;;-1.39;100.00;102372.84;4999325;28;20038;-74
2023/03/28 04:23:42;;;;;;;14.52;4.32;;;;;;;-1.41;100.00;102369.53;4982993;28;20092;-74
2023/03/28 04:26:25;;;;;;;16.23;4.25;;;;;;;-1.41;100.00;102377.16;5001383;28;20046;-74
2023/03/28 04:29:04;;;;;;;14.60;4.85;;;;;;;-1.44;100.00;102374.69;4986823;28;20022;-74
2023/03/28 04:31:34;;;;;;;17.35;5.93;;;;;;;-1.45;100.00;102373.03;4983175;28;20057;-74
2023/03/28 04:34:36;;;;;;;;;;;;;;;-1.46;100.00;102367.97;4985868;28;20281;-74
2023/03/28 04:37:16;;;;;;;23.40;4.88;;;;;;;-1.49;100.00;102373.94;4988377;28;20367;-73
2023/03/28 04:39:52;;;;;;;12.32;4.38;;;;;;;-1.51;100.00;102379.97;4984048;28;20038;-73
2023/03/28 04:42:40;;;;;;;14.38;4.50;;;;;;;-1.44;100.00;102373.84;4993965;28;20093;-73
2023/03/28 04:45:18;;;;;;;11.68;4.72;;;;;;;-1.35;100.00;102365.97;4998517;28;20038;-74
2023/03/28 04:47:45;;;;;;;11.48;4.88;;;;;;;-1.40;100.00;102372.88;5001883;28;20474;-74
2023/03/28 04:50:21;;;;;;;25.58;5.82;;;;;;;-1.35;100.00;102375.34;4984152;28;20041;-73
2023/03/28 04:52:46;;;;;;;18.95;6.00;;;;;;;-1.41;100.00;102377.16;4982878;28;20030;-73
2023/03/28 04:55:14;;;;;;;24.60;6.30;;;;;;;-1.29;100.00;102378.53;5001017;28;20042;-74
2023/03/28 04:57:40;;;;;;;17.92;5.53;;;;;;;-1.33;100.00;102388.84;5001394;28;20034;-73
2023/03/28 05:00:09;;;;;;;18.25;6.05;;;;;;;-1.40;100.00;102390.69;4999869;28;20407;-74
2023/03/28 05:03:23;;;;;;;19.60;6.30;;;;;;;-1.42;100.00;102387.38;4984040;28;20109;-73
2023/03/28 05:05:57;;;;;;;20.73;6.45;;;;;;;-1.46;100.00;102381.53;4978774;28;20037;-74
2023/03/28 05:08:25;;;;;;;19.83;6.57;;;;;;;-1.48;100.00;102390.06;4999190;28;20046;-74
2023/03/28 05:10:50;;;;;;;12.40;5.72;;;;;;;-1.51;100.00;102385.06;5002824;28;20031;-74
2023/03/28 05:13:16;;;;;;;21.58;8.85;;;;;;;-1.53;100.00;102385.09;4999026;28;20435;-73
2023/03/28 05:15:49;;;;;;;22.25;7.20;;;;;;;-1.53;100.00;102381.72;4996904;28;20396;-74
2023/03/28 05:18:31;;;;;;;15.43;6.22;;;;;;;-1.54;100.00;102380.88;4998885;28;20027;-73
2023/03/28 05:20:56;;;;;;;18.58;6.03;;;;;;;-1.54;100.00;102392.75;5000540;28;20111;-74
2023/03/28 05:23:22;;;;;;;11.65;5.60;;;;;;;-1.58;100.00;102385.22;5004748;28;20034;-73
2023/03/28 05:25:50;;;;;;;19.17;6.22;;;;;;;-1.59;100.00;102390.34;4980171;28;20066;-73
2023/03/28 05:28:16;;;;;;;23.90;6.75;;;;;;;-1.62;100.00;102387.88;4984477;28;20041;-73
2023/03/28 05:30:48;;;;;;;25.88;6.88;;;;;;;-1.63;100.00;102388.75;4999730;28;20448;-73
2023/03/28 05:33:14;;;;;;;15.45;6.47;;;;;;;-1.66;100.00;102389.66;4996654;28;20030;-73
2023/03/28 05:35:40;;;;;;;21.58;5.60;;;;;;;-1.66;100.00;102397.28;4979624;28;20042;-74
2023/03/28 05:38:06;;;;;;;16.90;5.55;;;;;;;-1.66;100.00;102397.28;4988271;28;20038;-73
2023/03/28 05:40:32;;;;;;;16.08;5.95;;;;;;;-1.66;100.00;102404.91;4997937;28;20084;-73
2023/03/28 05:42:59;;;;;;;24.55;5.70;;;;;;;-1.66;100.00;102399.81;5003123;28;20053;-73
2023/03/28 05:45:25;;;;;;;20.08;6.47;;;;;;;-1.60;100.00;102411.56;4995195;28;20053;-74
2023/03/28 05:47:54;;;;;;;21.58;7.38;;;;;;;-1.58;100.00;102412.38;5000077;28;20483;-74
2023/03/28 05:50:22;;;;;;;20.25;6.40;;;;;;;-1.56;100.00;102410.63;5001637;28;20057;-73
2023/03/28 05:52:49;;;;;;;21.73;8.07;;;;;;;-1.52;100.00;102417.31;4986508;28;20125;-74
2023/03/28 05:55:14;;;;;;;19.48;7.20;;;;;;;-1.50;100.00;102419.81;4986025;28;20049;-73
2023/03/28 05:57:42;;;;;;;27.02;7.53;;;;;;;-1.43;100.00;102416.22;4967486;28;20034;-73
2023/03/28 06:00:11;;;;;;;23.70;8.07;;;;;;;-1.41;100.00;102414.50;4983786;28;20053;-74
2023/03/28 06:02:44;;;;;;;29.58;7.90;;;;;;;-1.37;100.00;102427.09;4983885;28;20045;-74
2023/03/28 06:05:11;;;;;;;16.15;7.22;;;;;;;-1.29;100.00;102414.16;4997073;28;20192;-74
2023/03/28 06:07:38;;;;;;;21.85;7.00;;;;;;;-1.29;100.00;102419.25;4979751;28;20117;-73
2023/03/28 06:10:05;;;;;;;18.38;6.50;;;;;;;-1.21;100.00;102419.88;4998530;28;20048;-73
2023/03/28 06:12:31;;;;;;;19.77;7.53;;;;;;;-1.18;100.00;102419.00;5006180;28;20436;-75
2023/03/28 06:14:59;;;;;;;15.23;6.47;;;;;;;-1.14;100.00;102425.66;4982943;28;20034;-73
2023/03/28 06:17:30;;;;;;;17.77;6.55;;;;;;;-1.12;100.00;102425.63;5002871;28;20038;-74
2023/03/28 06:19:58;;;;;;;24.20;6.90;;;;;;;-1.09;100.00;102426.38;4999933;28;20034;-74
2023/03/28 06:22:24;;;;;;;14.70;6.13;;;;;;;-0.99;100.00;102424.41;5005748;28;20045;-74
2023/03/28 06:24:59;;;;;;;21.17;6.70;;;;;;;-0.87;100.00;102428.34;4988608;28;20096;-74
2023/03/28 06:27:28;;;;;;;23.55;7.28;;;;;;;-0.83;100.00;102429.91;4987556;28;20030;-74
2023/03/28 06:29:54;;;;;;;30.90;8.90;;;;;;;-0.79;100.00;102422.16;5003085;28;20595;-74
2023/03/28 06:32:19;;;;;;;23.15;7.53;;;;;;;-0.70;100.00;102423.59;5003658;28;20038;-74
2023/03/28 06:34:45;;;;;;;19.80;7.15;;;;;;;-0.62;100.00;102418.31;4983823;28;20034;-75
2023/03/28 06:37:11;;;;;;;18.77;7.30;;;;;;;-0.50;100.00;102424.75;5001816;28;20030;-75
2023/03/28 06:40:00;;;;;;;23.70;7.95;;;;;;;-0.35;100.00;102420.94;4989607;28;20415;-75
2023/03/28 06:42:26;;;;;;;33.38;11.48;;;;;;;-0.18;100.00;102425.53;4989611;28;20037;-75
2023/03/28 06:45:05;;;;;;;23.38;9.05;;;;;;;-0.02;100.00;102424.16;4999096;28;20640;-75
2023/03/28 06:47:44;;;;;;;24.27;7.03;;;;;;;0.30;100.00;102425.72;5004704;28;20483;-75
2023/03/28 06:50:10;;;;;;;17.75;6.35;;;;;;;0.66;100.00;102427.91;4997667;28;20051;-75
2023/03/28 06:52:43;;;;;;;18.33;7.05;;;;;;;1.26;100.00;102423.28;5000834;28;20026;-75
2023/03/28 06:55:09;;;;;;;22.10;6.57;;;;;;;2.04;100.00;102426.31;5000844;28;20046;-76
2023/03/28 06:57:35;;;;;;;21.63;5.75;;;;;;;2.95;95.66;102428.50;4990757;28;20075;-75
2023/03/28 07:00:11;;;;;;;18.73;6.63;;;;;;;3.84;88.41;102427.03;4983712;28;20046;-75
2023/03/28 07:02:55;;;;;;;20.52;7.63;;;;;;;4.56;84.02;102419.28;5000143;28;20056;-75
2023/03/28 07:05:21;;;;;;;21.45;5.47;;;;;;;4.75;78.70;102417.44;5002101;28;20050;-76
2023/03/28 07:07:46;;;;;;;17.67;5.68;;;;;;;5.40;77.86;102416.63;5003189;28;20038;-76
2023/03/28 07:10:12;;;;;;;10.68;4.80;;;;;;;6.03;74.71;102416.59;5000063;28;20589;-77
2023/03/28 07:12:39;;;;;;;18.80;5.72;;;;;;;6.69;70.73;102411.94;5001290;28;20038;-77
2023/03/28 07:15:24;;;;;;;19.23;6.80;;;;;;;7.19;69.62;102414.97;5000826;28;20049;-76
2023/03/28 07:17:52;;;;;;;20.65;5.35;;;;;;;7.67;67.06;102410.25;5001616;28;20023;-77
2023/03/28 07:20:21;;;;;;;16.15;4.38;;;;;;;7.79;64.63;102416.38;5000065;28;20054;-77
2023/03/28 07:22:49;;;;;;;17.70;4.93;;;;;;;7.77;67.33;102416.47;4998417;28;20034;-77
2023/03/28 07:25:18;;;;;;;20.08;5.20;;;;;;;8.20;63.16;102412.84;4986741;28;20046;-76
2023/03/28 07:27:48;;;;;;;13.68;4.85;;;;;;;8.13;65.32;102419.34;4991309;28;20026;-76
2023/03/28 07:30:17;;;;;;;18.60;5.65;;;;;;;8.10;62.82;102420.41;4981970;28;20062;-76
2023/03/28 07:36:44;;;;;;;18.05;6.40;;;;;;;7.58;64.65;102416.81;4988769;28;20041;-76
2023/03/28 14:36:13;;;;;;;19.20;6.22;;;;;;;10.96;40.73;101970.97;636318;22;21018;31
2023/03/28 14:38:39;;;;;;;9.57;2.78;;;;;;;11.09;40.52;101968.16;4919524;28;20052;-77
2023/03/28 14:41:14;;;;;;;4.53;1.80;;;;;;;11.12;39.83;101957.53;4911648;28;20456;-77
2023/03/28 14:43:40;;;;;;;5.68;2.67;;;;;;;11.17;41.19;101957.97;4912489;28;20039;-77
2023/03/28 14:46:08;;;;;;;8.88;2.95;;;;;;;11.20;41.66;101946.47;4915794;28;20158;-77
2023/03/28 14:48:36;;;;;;;7.20;1.98;;;;;;;11.16;39.04;101940.72;4994565;28;20043;-76
2023/03/28 14:51:04;;;;;;;6.78;1.40;;;;;;;11.00;37.81;101938.63;4922488;28;20044;-76
2023/03/28 14:53:35;;;;;;;4.63;1.45;;;;;;;10.80;39.10;101932.53;4912648;28;20243;-77
2023/03/28 14:56:11;;;;;;;5.55;1.33;;;;;;;10.71;39.69;101936.72;4924447;28;20044;-77
2023/03/28 14:58:40;;;;;;;6.95;1.65;;;;;;;10.69;40.98;101930.03;4906529;28;20036;-77
2023/03/28 15:01:08;;;;;;;4.90;1.60;;;;;;;10.82;39.87;101932.41;4929903;28;20052;-77
2023/03/28 15:03:37;;;;;;;6.95;1.42;;;;;;;10.62;40.54;101923.69;4912257;28;20603;-77
2023/03/28 15:06:04;;;;;;;9.10;1.63;;;;;;;10.68;40.07;101917.97;4923790;28;20064;-77
2023/03/28 15:08:37;;;;;;;5.38;2.08;;;;;;;10.55;41.35;101913.03;4910838;28;20477;-78
2023/03/28 15:11:18;;;;;;;6.60;2.40;;;;;;;10.57;40.26;101903.34;4914796;28;20059;-77
2023/03/28 15:13:47;;;;;;;8.52;1.58;;;;;;;10.50;40.16;101908.22;4933614;28;20090;-77
2023/03/28 15:16:22;;;;;;;4.57;1.20;;;;;;;10.55;40.46;101902.66;4908806;28;20091;-77
2023/03/28 15:19:05;;;;;;;5.35;1.42;;;;;;;10.67;40.70;101888.63;4920743;28;20116;-77
2023/03/28 15:21:33;;;;;;;29.33;9.38;;;;;;;10.79;42.15;101880.75;4908799;28;20048;-77
2023/03/28 15:23:59;;;;;;;11.10;3.67;;;;;;;10.80;42.05;101882.41;4928996;28;20130;-78
2023/03/28 15:26:33;;;;;;;5.32;1.63;;;;;;;10.54;40.89;101877.66;4937766;28;20067;-77
2023/03/28 15:28:59;;;;;;;9.05;2.05;;;;;;;10.65;41.54;101861.19;4937674;28;20031;-77
2023/03/28 15:31:26;;;;;;;9.55;2.00;;;;;;;10.83;41.12;101853.59;4909818;28;20421;-76
2023/03/28 15:33:52;;;;;;;5.95;1.40;;;;;;;10.89;40.37;101850.50;4914521;28;20032;-76
2023/03/28 15:36:22;;;;;;;7.75;2.70;;;;;;;10.77;42.09;101843.75;4906620;28;20048;-77
2023/03/28 15:38:50;;;;;;;9.68;1.65;;;;;;;10.56;41.37;101849.00;4914074;28;20150;-77
2023/03/28 15:41:18;;;;;;;3.17;1.27;;;;;;;10.49;41.01;101843.50;4910242;28;20499;-77
2023/03/28 15:43:52;;;;;;;8.15;1.88;;;;;;;10.51;41.32;101842.44;4908339;28;20036;-77
2023/03/28 15:46:20;;;;;;;5.55;1.88;;;;;;;10.49;42.32;101831.38;4921822;28;20517;-77
2023/03/28 15:48:47;;;;;;;3.28;1.00;;;;;;;10.56;41.91;101825.66;4927687;28;20055;-77
2023/03/28 15:51:15;;;;;;;4.55;1.58;;;;;;;10.45;41.96;101814.44;4915852;28;20063;-77
2023/03/28 15:53:43;;;;;;;9.38;1.88;;;;;;;10.47;42.61;101812.53;4907569;28;21002;-78
2023/03/28 15:56:24;;;;;;;4.57;2.00;;;;;;;10.42;41.95;101819.88;4912914;28;20040;-77
2023/03/28 15:58:50;;;;;;;3.55;1.40;;;;;;;10.32;43.76;101811.22;4924139;28;20034;-76
2023/03/28 16:01:22;;;;;;;7.22;1.90;;;;;;;10.35;42.56;101807.56;4913855;28;20409;-77
2023/03/28 16:03:50;;;;;;;4.47;1.42;;;;;;;10.31;42.61;101800.03;4987585;28;20532;-76
2023/03/28 16:06:18;;;;;;;9.38;1.60;;;;;;;10.26;43.03;101803.94;4908865;28;20059;-77
2023/03/28 16:08:49;;;;;;;7.72;1.33;;;;;;;10.20;43.41;101800.09;4926176;28;20043;-77
2023/03/28 16:11:25;;;;;;;7.53;1.70;;;;;;;10.17;42.84;101800.38;4920471;28;20044;-76
2023/03/28 16:14:17;;;;;;;5.25;1.20;;;;;;;10.17;42.10;101797.78;4923874;28;20079;-76
2023/03/28 16:17:24;;;;;;;;;;;;;;;10.05;43.24;101797.00;4951640;28;20050;-76
2023/03/28 16:19:59;;;;;;;8.75;1.45;;;;;;;9.92;43.64;101802.38;4932547;28;20327;-76
2023/03/28 16:22:25;;;;;;;5.07;1.40;;;;;;;9.93;43.83;101798.88;4915414;28;20040;-77
2023/03/28 16:24:53;;;;;;;7.30;1.38;;;;;;;9.89;43.03;101794.88;4918260;28;20032;-77
2023/03/28 16:27:20;;;;;;;5.78;1.65;;;;;;;9.90;44.64;101791.34;4910489;28;20040;-77
2023/03/28 16:29:46;;;;;;;8.98;1.88;;;;;;;10.06;44.05;101792.69;4917690;28;20106;-77
2023/03/28 16:32:13;;;;;;;8.07;1.40;;;;;;;10.05;43.12;101791.84;4922820;28;20118;-77
2023/03/28 16:34:40;;;;;;;10.05;1.55;;;;;;;9.94;43.78;101790.16;4920141;28;20451;-77
2023/03/28 16:37:07;;;;;;;9.20;2.00;;;;;;;9.87;44.54;101795.94;4909870;28;20086;-77
2023/03/28 16:39:34;;;;;;;7.25;1.17;;;;;;;9.84;45.65;101784.09;4909686;28;20036;-76
2023/03/28 16:42:00;;;;;;;13.35;1.85;;;;;;;9.90;45.47;101780.97;4908388;28;20119;-75
2023/03/28 16:44:26;;;;;;;3.70;1.13;;;;;;;9.78;44.97;101786.38;4905077;28;20045;-75
2023/03/28 16:46:51;;;;;;;5.03;1.45;;;;;;;9.89;44.06;101773.34;4906184;28;20059;-75
2023/03/28 16:49:17;;;;;;;4.85;1.45;;;;;;;9.86;43.89;101776.19;4913024;28;20036;-75
2023/03/28 16:51:43;;;;;;;4.13;1.30;;;;;;;9.73;44.98;101766.00;4909154;28;20134;-76
2023/03/28 16:54:10;;;;;;;4.65;1.40;;;;;;;9.65;45.30;101771.84;4927189;28;22302;-75
2023/03/28 16:56:36;;;;;;;7.10;1.45;;;;;;;9.61;45.93;101760.09;4896261;28;20102;-74
2023/03/28 16:59:03;;;;;;;6.43;1.85;;;;;;;9.63;44.98;101763.38;4911703;28;20076;-75
2023/03/28 17:01:29;;;;;;;9.25;2.17;;;;;;;9.62;45.23;101777.25;4913403;28;20115;-75
2023/03/28 17:03:54;;;;;;;9.25;2.65;;;;;;;9.54;45.89;101777.88;4920260;28;20044;-75
2023/03/28 17:06:20;;;;;;;7.38;1.50;;;;;;;9.49;45.23;101774.03;4927182;28;20048;-76
2023/03/28 17:08:47;;;;;;;10.05;1.98;;;;;;;9.41;45.91;101776.44;4933951;28;20086;-75
2023/03/28 17:11:13;;;;;;;3.47;1.08;;;;;;;9.34;47.25;101776.09;4988165;28;20078;-75
2023/03/28 17:13:40;;;;;;;9.35;1.77;;;;;;;9.43;46.44;101774.53;4909888;28;20539;-75
2023/03/28 17:16:08;;;;;;;6.65;1.77;;;;;;;9.28;47.26;101771.41;4922137;28;20117;-75
2023/03/28 17:18:34;;;;;;;3.58;1.73;;;;;;;9.21;47.72;101775.44;4920864;28;20039;-75
2023/03/28 17:21:11;;;;;;;11.52;2.33;;;;;;;9.13;49.03;101763.09;4919383;28;20671;-75
2023/03/28 17:23:39;;;;;;;9.35;2.22;;;;;;;9.18;49.81;101771.34;4902969;28;20047;-74
2023/03/28 17:26:07;;;;;;;7.30;2.28;;;;;;;9.14;48.63;101775.13;4906166;28;20040;-75
2023/03/28 17:28:35;;;;;;;5.82;2.22;;;;;;;8.95;49.17;101776.56;4920137;28;20040;-76
2023/03/28 17:31:05;;;;;;;5.28;2.20;;;;;;;8.97;49.28;101768.69;4913766;28;20044;-75
2023/03/28 17:33:31;;;;;;;9.95;3.08;;;;;;;8.98;49.04;101769.50;4912634;28;20167;-74
2023/03/28 17:35:57;;;;;;;13.40;3.17;;;;;;;8.96;48.93;101767.03;4906350;28;20064;-74
2023/03/28 17:38:22;;;;;;;7.82;3.20;;;;;;;8.95;49.03;101765.41;4916428;28;21024;-76
2023/03/28 17:40:48;;;;;;;6.60;2.50;;;;;;;8.88;50.10;101767.66;4985832;28;20040;-74
2023/03/28 17:43:14;;;;;;;9.30;2.63;;;;;;;8.91;48.58;101753.66;4922785;28;20036;-75
2023/03/28 17:45:40;;;;;;;5.65;1.88;;;;;;;8.82;49.35;101762.97;4985441;28;20510;-76
2023/03/28 17:48:06;;;;;;;7.30;2.35;;;;;;;8.74;49.35;101762.75;4990747;28;20127;-75
2023/03/28 17:50:32;;;;;;;5.63;1.83;;;;;;;8.75;49.14;101759.22;4906083;28;20105;-75
2023/03/28 17:52:58;;;;;;;8.60;3.08;;;;;;;8.72;49.46;101767.22;4930321;28;20055;-75
2023/03/28 17:55:23;;;;;;;7.40;2.97;;;;;;;8.72;49.69;101762.88;4929562;28;20045;-75
2023/03/28 17:57:49;;;;;;;9.00;2.85;;;;;;;8.68;49.96;101758.06;4921745;28;20036;-75
2023/03/28 18:00:15;;;;;;;6.93;2.42;;;;;;;8.69;50.38;101765.69;4906608;28;20048;-75
2023/03/28 18:02:44;;;;;;;7.55;3.35;;;;;;;8.72;50.25;101765.47;4928422;28;20887;-75
2023/03/28 18:05:21;;;;;;;10.32;2.33;;;;;;;8.69;49.73;101767.47;4906187;28;20075;-76
2023/03/28 18:07:50;;;;;;;5.82;2.33;;;;;;;8.71;49.61;101768.16;4901514;28;20032;-76
2023/03/28 18:10:18;;;;;;;4.28;1.83;;;;;;;8.67;50.86;101761.59;4914378;28;20131;-75
2023/03/28 18:12:43;;;;;;;13.45;2.63;;;;;;;8.56;50.84;101759.84;4915005;28;20047;-75
2023/03/28 18:15:09;;;;;;;7.18;2.53;;;;;;;8.62;50.40;101758.53;4941028;28;20048;-76
2023/03/28 18:17:35;;;;;;;10.15;2.05;;;;;;;8.57;49.91;101766.66;4923456;28;20044;-75
2023/03/28 18:20:00;;;;;;;6.55;2.08;;;;;;;8.55;51.19;101766.78;4918454;28;20086;-75
2023/03/28 18:22:26;;;;;;;6.72;2.83;;;;;;;8.31;51.96;101771.22;4973556;28;20028;-75
2023/03/28 18:24:52;;;;;;;5.90;2.22;;;;;;;8.33;51.53;101762.41;4943184;28;20082;-75
2023/03/28 18:27:17;;;;;;;5.38;2.55;;;;;;;8.31;52.45;101766.88;4912413;28;20521;-75
2023/03/28 18:29:43;;;;;;;7.88;2.83;;;;;;;8.33;52.96;101769.34;4925845;28;20028;-76
2023/03/28 18:32:08;;;;;;;6.45;2.50;;;;;;;8.23;53.51;101774.41;4917286;28;20052;-75
2023/03/28 18:34:34;;;;;;;4.35;1.33;;;;;;;8.18;55.05;101769.56;4933756;28;20039;-75
2023/03/28 18:36:59;;;;;;;2.85;1.40;;;;;;;8.09;57.26;101775.41;4926661;28;20048;-75
2023/03/28 18:39:25;;;;;;;8.48;1.88;;;;;;;8.00;58.03;101781.28;4929522;28;20032;-76